sensor_id;sensor_type;location;lat;lon;timestamp;pressure;altitude;pressure_sealevel;temperature;humidity
67109;BME280;54027;50.786;7.058;2023-02-01T00:01:40;101645.94;;;6.60;95.99
67109;BME280;54027;50.786;7.058;2023-02-01T00:04:06;101643.34;;;6.60;95.95
67109;BME280;54027;50.786;7.058;2023-02-01T00:06:31;101642.41;;;6.55;95.91
67109;BME280;54027;50.786;7.058;2023-02-01T00:08:57;101641.41;;;6.50;95.76
67109;BME280;54027;50.786;7.058;2023-02-01T00:11:23;101639.69;;;6.49;95.41
67109;BME280;54027;50.786;7.058;2023-02-01T00:13:49;101635.19;;;6.39;95.59
67109;BME280;54027;50.786;7.058;2023-02-01T00:16:18;101636.78;;;6.33;95.86
67109;BME280;54027;50.786;7.058;2023-02-01T00:18:45;101633.91;;;6.20;96.31
67109;BME280;54027;50.786;7.058;2023-02-01T00:21:12;101644.03;;;6.14;96.63
67109;BME280;54027;50.786;7.058;2023-02-01T00:23:38;101645.66;;;6.10;97.09
67109;BME280;54027;50.786;7.058;2023-02-01T00:26:05;101637.91;;;6.09;97.05
67109;BME280;54027;50.786;7.058;2023-02-01T00:28:31;101640.53;;;6.12;97.37
67109;BME280;54027;50.786;7.058;2023-02-01T00:31:00;101639.59;;;6.07;97.08
67109;BME280;54027;50.786;7.058;2023-02-01T00:33:27;101648.97;;;6.05;96.98
67109;BME280;54027;50.786;7.058;2023-02-01T00:36:01;101654.22;;;6.11;97.02
67109;BME280;54027;50.786;7.058;2023-02-01T00:38:28;101650.94;;;6.16;95.85
67109;BME280;54027;50.786;7.058;2023-02-01T00:40:55;101650.16;;;6.19;95.24
67109;BME280;54027;50.786;7.058;2023-02-01T00:43:26;101642.44;;;6.19;94.25
67109;BME280;54027;50.786;7.058;2023-02-01T00:45:51;101645.88;;;6.19;93.65
67109;BME280;54027;50.786;7.058;2023-02-01T00:48:17;101641.63;;;6.20;93.75
67109;BME280;54027;50.786;7.058;2023-02-01T00:50:43;101640.84;;;6.24;92.99
67109;BME280;54027;50.786;7.058;2023-02-01T00:53:09;101646.09;;;6.28;92.46
67109;BME280;54027;50.786;7.058;2023-02-01T00:55:35;101637.69;;;6.35;91.08
67109;BME280;54027;50.786;7.058;2023-02-01T00:58:00;101646.47;;;6.45;88.86
67109;BME280;54027;50.786;7.058;2023-02-01T01:00:26;101644.78;;;6.47;88.64
67109;BME280;54027;50.786;7.058;2023-02-01T01:02:52;101644.91;;;6.53;87.49
67109;BME280;54027;50.786;7.058;2023-02-01T01:05:17;101647.50;;;6.53;87.56
67109;BME280;54027;50.786;7.058;2023-02-01T01:07:42;101643.97;;;6.50;87.36
67109;BME280;54027;50.786;7.058;2023-02-01T01:10:08;101642.28;;;6.50;87.17
67109;BME280;54027;50.786;7.058;2023-02-01T01:12:34;101625.19;;;6.51;86.27
67109;BME280;54027;50.786;7.058;2023-02-01T01:14:59;101625.13;;;6.48;86.29
67109;BME280;54027;50.786;7.058;2023-02-01T01:17:24;101608.00;;;6.47;85.94
67109;BME280;54027;50.786;7.058;2023-02-01T01:19:50;101602.81;;;6.45;85.56
67109;BME280;54027;50.786;7.058;2023-02-01T01:22:15;101605.38;;;6.45;84.83
67109;BME280;54027;50.786;7.058;2023-02-01T01:24:41;101594.22;;;6.43;85.33
67109;BME280;54027;50.786;7.058;2023-02-01T01:27:06;101594.97;;;6.39;85.33
67109;BME280;54027;50.786;7.058;2023-02-01T01:29:31;101591.50;;;6.37;85.03
67109;BME280;54027;50.786;7.058;2023-02-01T01:31:57;101598.34;;;6.38;84.52
67109;BME280;54027;50.786;7.058;2023-02-01T01:34:22;101600.09;;;6.39;84.60
67109;BME280;54027;50.786;7.058;2023-02-01T01:36:48;101605.25;;;6.39;84.37
67109;BME280;54027;50.786;7.058;2023-02-01T01:39:13;101614.75;;;6.43;83.62
67109;BME280;54027;50.786;7.058;2023-02-01T01:41:38;101610.50;;;6.45;83.08
67109;BME280;54027;50.786;7.058;2023-02-01T01:44:05;101616.47;;;6.44;82.93
67109;BME280;54027;50.786;7.058;2023-02-01T01:46:36;101625.91;;;6.44;82.94
67109;BME280;54027;50.786;7.058;2023-02-01T01:49:15;101629.38;;;6.47;82.64
67109;BME280;54027;50.786;7.058;2023-02-01T01:51:45;101620.88;;;6.50;81.96
67109;BME280;54027;50.786;7.058;2023-02-01T01:54:26;101638.81;;;6.47;82.84
67109;BME280;54027;50.786;7.058;2023-02-01T01:56:57;101636.19;;;6.44;83.03
67109;BME280;54027;50.786;7.058;2023-02-01T01:59:24;101633.47;;;6.38;83.79
67109;BME280;54027;50.786;7.058;2023-02-01T02:01:51;101624.03;;;6.37;83.34
67109;BME280;54027;50.786;7.058;2023-02-01T02:04:17;101617.06;;;6.32;84.01
67109;BME280;54027;50.786;7.058;2023-02-01T02:06:45;101605.78;;;6.26;84.23
67109;BME280;54027;50.786;7.058;2023-02-01T02:09:14;101610.84;;;6.23;83.98
67109;BME280;54027;50.786;7.058;2023-02-01T02:11:40;101607.31;;;6.16;84.78
67109;BME280;54027;50.786;7.058;2023-02-01T02:14:09;101600.44;;;6.15;85.22
67109;BME280;54027;50.786;7.058;2023-02-01T02:16:40;101589.28;;;6.13;85.33
67109;BME280;54027;50.786;7.058;2023-02-01T02:32:47;101583.41;;;6.19;85.09
67109;BME280;54027;50.786;7.058;2023-02-01T02:41:09;101584.09;;;6.12;85.66
67109;BME280;54027;50.786;7.058;2023-02-01T02:43:46;101586.63;;;6.10;85.89
67109;BME280;54027;50.786;7.058;2023-02-01T02:46:38;101591.78;;;6.12;85.91
67109;BME280;54027;50.786;7.058;2023-02-01T02:49:28;101587.59;;;6.15;85.47
67109;BME280;54027;50.786;7.058;2023-02-01T02:52:12;101586.78;;;6.18;85.75
67109;BME280;54027;50.786;7.058;2023-02-01T02:54:59;101592.00;;;6.21;85.22
67109;BME280;54027;50.786;7.058;2023-02-01T02:57:38;101586.09;;;6.25;85.10
67109;BME280;54027;50.786;7.058;2023-02-01T03:00:29;101582.75;;;6.29;85.34
67109;BME280;54027;50.786;7.058;2023-02-01T03:03:15;101582.81;;;6.30;85.21
67109;BME280;54027;50.786;7.058;2023-02-01T03:05:59;101572.63;;;6.35;84.90
67109;BME280;54027;50.786;7.058;2023-02-01T03:08:26;101564.97;;;6.37;84.74
67109;BME280;54027;50.786;7.058;2023-02-01T03:11:09;101551.38;;;6.42;83.62
67109;BME280;54027;50.786;7.058;2023-02-01T03:18:57;101545.50;;;6.46;83.69
67109;BME280;54027;50.786;7.058;2023-02-01T03:21:36;101542.97;;;6.49;83.14
67109;BME280;54027;50.786;7.058;2023-02-01T03:24:07;101548.06;;;6.48;83.68
67109;BME280;54027;50.786;7.058;2023-02-01T03:26:37;101542.91;;;6.46;83.38
67109;BME280;54027;50.786;7.058;2023-02-01T03:29:16;101546.31;;;6.45;83.28
67109;BME280;54027;50.786;7.058;2023-02-01T03:31:42;101547.25;;;6.49;82.91
67109;BME280;54027;50.786;7.058;2023-02-01T03:34:09;101560.97;;;6.51;82.85
67109;BME280;54027;50.786;7.058;2023-02-01T03:36:40;101561.88;;;6.53;82.32
67109;BME280;54027;50.786;7.058;2023-02-01T03:39:15;101563.66;;;6.55;81.92
67109;BME280;54027;50.786;7.058;2023-02-01T03:41:55;101570.44;;;6.53;82.66
67109;BME280;54027;50.786;7.058;2023-02-01T03:44:36;101557.66;;;6.55;82.69
67109;BME280;54027;50.786;7.058;2023-02-01T03:47:10;101555.22;;;6.62;81.92
67109;BME280;54027;50.786;7.058;2023-02-01T03:49:43;101555.25;;;6.64;81.60
67109;BME280;54027;50.786;7.058;2023-02-01T03:52:28;101559.53;;;6.65;81.58
67109;BME280;54027;50.786;7.058;2023-02-01T03:54:56;101560.28;;;6.59;82.18
67109;BME280;54027;50.786;7.058;2023-02-01T03:57:27;101548.38;;;6.61;81.35
67109;BME280;54027;50.786;7.058;2023-02-01T04:00:04;101551.69;;;6.57;81.73
67109;BME280;54027;50.786;7.058;2023-02-01T04:02:30;101544.75;;;6.53;81.41
67109;BME280;54027;50.786;7.058;2023-02-01T04:04:55;101542.19;;;6.53;81.34
67109;BME280;54027;50.786;7.058;2023-02-01T04:07:20;101556.66;;;6.48;81.67
67109;BME280;54027;50.786;7.058;2023-02-01T04:09:46;101559.06;;;6.41;82.19
67109;BME280;54027;50.786;7.058;2023-02-01T04:12:11;101542.66;;;6.34;82.08
67109;BME280;54027;50.786;7.058;2023-02-01T04:14:37;101538.53;;;6.42;81.46
67109;BME280;54027;50.786;7.058;2023-02-01T04:17:02;101549.50;;;6.35;81.88
67109;BME280;54027;50.786;7.058;2023-02-01T04:19:28;101550.38;;;6.35;81.72
67109;BME280;54027;50.786;7.058;2023-02-01T04:21:53;101545.28;;;6.37;81.72
67109;BME280;54027;50.786;7.058;2023-02-01T04:24:19;101554.72;;;6.38;81.45
67109;BME280;54027;50.786;7.058;2023-02-01T04:26:44;101558.94;;;6.34;82.41
67109;BME280;54027;50.786;7.058;2023-02-01T04:29:09;101552.06;;;6.35;81.92
67109;BME280;54027;50.786;7.058;2023-02-01T04:31:35;101548.94;;;6.48;80.84
67109;BME280;54027;50.786;7.058;2023-02-01T04:34:01;101541.31;;;6.51;80.91
67109;BME280;54027;50.786;7.058;2023-02-01T04:36:26;101544.69;;;6.49;81.15
67109;BME280;54027;50.786;7.058;2023-02-01T04:38:52;101545.56;;;6.51;80.78
67109;BME280;54027;50.786;7.058;2023-02-01T04:41:18;101532.84;;;6.55;80.23
67109;BME280;54027;50.786;7.058;2023-02-01T04:43:47;101543.88;;;6.53;81.07
67109;BME280;54027;50.786;7.058;2023-02-01T04:46:13;101542.19;;;6.52;80.95
67109;BME280;54027;50.786;7.058;2023-02-01T04:48:39;101526.03;;;6.59;79.73
67109;BME280;54027;50.786;7.058;2023-02-01T04:51:04;101543.13;;;6.57;80.09
67109;BME280;54027;50.786;7.058;2023-02-01T04:53:30;101543.19;;;6.60;79.57
67109;BME280;54027;50.786;7.058;2023-02-01T04:55:55;101543.94;;;6.56;80.31
67109;BME280;54027;50.786;7.058;2023-02-01T04:58:21;101550.63;;;6.48;80.79
67109;BME280;54027;50.786;7.058;2023-02-01T05:00:46;101547.94;;;6.40;80.77
67109;BME280;54027;50.786;7.058;2023-02-01T05:03:12;101534.09;;;6.35;80.48
67109;BME280;54027;50.786;7.058;2023-02-01T05:05:37;101522.81;;;6.25;80.94
67109;BME280;54027;50.786;7.058;2023-02-01T05:08:03;101526.81;;;6.13;81.94
67109;BME280;54027;50.786;7.058;2023-02-01T05:10:28;101510.38;;;6.05;81.70
67109;BME280;54027;50.786;7.058;2023-02-01T05:12:54;101510.25;;;6.00;81.95
67109;BME280;54027;50.786;7.058;2023-02-01T05:15:38;101517.72;;;5.90;82.25
67109;BME280;54027;50.786;7.058;2023-02-01T05:18:04;101517.66;;;5.87;82.44
67109;BME280;54027;50.786;7.058;2023-02-01T05:20:29;101512.56;;;5.88;81.88
67109;BME280;54027;50.786;7.058;2023-02-01T05:22:54;101510.19;;;5.96;81.33
67109;BME280;54027;50.786;7.058;2023-02-01T05:25:20;101518.69;;;5.95;81.25
67109;BME280;54027;50.786;7.058;2023-02-01T05:27:45;101516.03;;;5.90;80.92
67109;BME280;54027;50.786;7.058;2023-02-01T05:30:11;101535.56;;;5.85;81.41
67109;BME280;54027;50.786;7.058;2023-02-01T05:32:36;101531.16;;;5.78;81.51
67109;BME280;54027;50.786;7.058;2023-02-01T05:35:02;101538.91;;;5.81;81.42
67109;BME280;54027;50.786;7.058;2023-02-01T05:37:27;101539.75;;;5.80;81.18
67109;BME280;54027;50.786;7.058;2023-02-01T05:39:53;101540.50;;;5.76;81.31
67109;BME280;54027;50.786;7.058;2023-02-01T05:42:19;101542.31;;;5.80;80.66
67109;BME280;54027;50.786;7.058;2023-02-01T05:44:44;101540.53;;;5.77;80.43
67109;BME280;54027;50.786;7.058;2023-02-01T05:47:10;101531.16;;;5.78;80.94
67109;BME280;54027;50.786;7.058;2023-02-01T05:49:35;101530.16;;;5.73;81.13
67109;BME280;54027;50.786;7.058;2023-02-01T05:52:01;101534.47;;;5.74;80.29
67109;BME280;54027;50.786;7.058;2023-02-01T05:54:26;101545.44;;;5.68;80.71
67109;BME280;54027;50.786;7.058;2023-02-01T05:56:52;101541.13;;;5.67;80.25
67109;BME280;54027;50.786;7.058;2023-02-01T05:59:17;101527.44;;;5.67;80.85
67109;BME280;54027;50.786;7.058;2023-02-01T06:01:42;101518.06;;;5.67;80.72
67109;BME280;54027;50.786;7.058;2023-02-01T06:04:08;101527.31;;;5.61;80.73
67109;BME280;54027;50.786;7.058;2023-02-01T06:06:33;101528.09;;;5.58;80.78
67109;BME280;54027;50.786;7.058;2023-02-01T06:08:59;101529.84;;;5.59;81.01
67109;BME280;54027;50.786;7.058;2023-02-01T06:11:25;101527.22;;;5.56;80.30
67109;BME280;54027;50.786;7.058;2023-02-01T06:13:51;101534.81;;;5.53;81.11
67109;BME280;54027;50.786;7.058;2023-02-01T06:16:17;101534.81;;;5.53;81.22
67109;BME280;54027;50.786;7.058;2023-02-01T06:18:42;101538.91;;;5.45;81.81
67109;BME280;54027;50.786;7.058;2023-02-01T06:21:08;101526.16;;;5.48;81.24
67109;BME280;54027;50.786;7.058;2023-02-01T06:23:34;101510.19;;;5.60;80.04
67109;BME280;54027;50.786;7.058;2023-02-01T06:26:04;101517.03;;;5.59;80.21
67109;BME280;54027;50.786;7.058;2023-02-01T06:28:31;101516.00;;;5.53;81.05
67109;BME280;54027;50.786;7.058;2023-02-01T06:30:58;101511.63;;;5.49;80.63
67109;BME280;54027;50.786;7.058;2023-02-01T06:33:27;101523.31;;;5.38;81.15
67109;BME280;54027;50.786;7.058;2023-02-01T06:35:59;101520.91;;;5.44;81.03
67109;BME280;54027;50.786;7.058;2023-02-01T06:38:26;101527.88;;;5.49;80.63
67109;BME280;54027;50.786;7.058;2023-02-01T06:40:55;101538.97;;;5.48;81.22
67109;BME280;54027;50.786;7.058;2023-02-01T06:43:25;101542.31;;;5.46;80.96
67109;BME280;54027;50.786;7.058;2023-02-01T06:45:51;101533.88;;;5.50;81.15
67109;BME280;54027;50.786;7.058;2023-02-01T06:48:16;101546.03;;;5.57;81.08
67109;BME280;54027;50.786;7.058;2023-02-01T06:50:42;101542.69;;;5.61;80.42
67109;BME280;54027;50.786;7.058;2023-02-01T06:53:07;101553.78;;;5.60;80.88
67109;BME280;54027;50.786;7.058;2023-02-01T06:55:33;101554.81;;;5.66;80.74
67109;BME280;54027;50.786;7.058;2023-02-01T06:57:58;101553.97;;;5.67;80.52
67109;BME280;54027;50.786;7.058;2023-02-01T07:00:24;101552.28;;;5.69;80.69
67109;BME280;54027;50.786;7.058;2023-02-01T07:02:50;101567.69;;;5.69;80.52
67109;BME280;54027;50.786;7.058;2023-02-01T07:05:16;101562.56;;;5.69;80.63
67109;BME280;54027;50.786;7.058;2023-02-01T07:07:42;101563.56;;;5.76;79.89
67109;BME280;54027;50.786;7.058;2023-02-01T07:10:08;101576.31;;;5.71;80.23
67109;BME280;54027;50.786;7.058;2023-02-01T07:12:34;101561.81;;;5.73;80.30
67109;BME280;54027;50.786;7.058;2023-02-01T07:15:00;101560.22;;;5.78;79.44
67109;BME280;54027;50.786;7.058;2023-02-01T07:17:26;101563.47;;;5.71;80.27
67109;BME280;54027;50.786;7.058;2023-02-01T07:19:54;101574.53;;;5.69;80.09
67109;BME280;54027;50.786;7.058;2023-02-01T07:22:19;101574.47;;;5.66;80.47
67109;BME280;54027;50.786;7.058;2023-02-01T07:24:44;101572.81;;;5.69;80.29
67109;BME280;54027;50.786;7.058;2023-02-01T07:27:10;101572.88;;;5.71;80.61
67109;BME280;54027;50.786;7.058;2023-02-01T07:29:35;101576.22;;;5.68;80.34
67109;BME280;54027;50.786;7.058;2023-02-01T07:32:00;101576.31;;;5.71;80.59
67109;BME280;54027;50.786;7.058;2023-02-01T07:34:27;101587.44;;;5.72;80.62
67109;BME280;54027;50.786;7.058;2023-02-01T07:36:53;101589.28;;;5.77;79.81
67109;BME280;54027;50.786;7.058;2023-02-01T07:39:18;101596.19;;;5.82;79.74
67109;BME280;54027;50.786;7.058;2023-02-01T07:41:43;101592.81;;;5.83;79.75
67109;BME280;54027;50.786;7.058;2023-02-01T07:44:09;101594.56;;;5.84;79.78
67109;BME280;54027;50.786;7.058;2023-02-01T07:46:34;101598.91;;;5.88;79.90
67109;BME280;54027;50.786;7.058;2023-02-01T07:49:01;101587.06;;;5.93;79.49
67109;BME280;54027;50.786;7.058;2023-02-01T07:51:26;101588.91;;;5.98;78.85
67109;BME280;54027;50.786;7.058;2023-02-01T07:53:52;101588.06;;;5.99;79.22
67109;BME280;54027;50.786;7.058;2023-02-01T07:56:18;101589.78;;;5.99;79.24
67109;BME280;54027;50.786;7.058;2023-02-01T07:58:53;101584.69;;;6.00;79.33
67109;BME280;54027;50.786;7.058;2023-02-01T08:01:22;101585.63;;;6.04;78.42
67109;BME280;54027;50.786;7.058;2023-02-01T08:03:52;101589.13;;;6.07;78.89
67109;BME280;54027;50.786;7.058;2023-02-01T08:06:18;101579.00;;;6.13;78.68
67109;BME280;54027;50.786;7.058;2023-02-01T08:08:48;101592.72;;;6.15;78.61
67109;BME280;54027;50.786;7.058;2023-02-01T08:11:15;101597.94;;;6.18;78.60
67109;BME280;54027;50.786;7.058;2023-02-01T08:13:41;101604.81;;;6.21;78.90
67109;BME280;54027;50.786;7.058;2023-02-01T08:16:08;101603.19;;;6.24;78.15
67109;BME280;54027;50.786;7.058;2023-02-01T08:18:35;101603.28;;;6.29;77.82
67109;BME280;54027;50.786;7.058;2023-02-01T08:21:18;101596.53;;;6.32;77.67
67109;BME280;54027;50.786;7.058;2023-02-01T08:23:44;101604.22;;;6.32;77.87
67109;BME280;54027;50.786;7.058;2023-02-01T08:28:44;101603.50;;;6.38;77.77
67109;BME280;54027;50.786;7.058;2023-02-01T08:31:12;101585.59;;;6.41;77.15
67109;BME280;54027;50.786;7.058;2023-02-01T08:33:40;101583.13;;;6.46;76.79
67109;BME280;54027;50.786;7.058;2023-02-01T08:36:07;101585.78;;;6.49;76.95
67109;BME280;54027;50.786;7.058;2023-02-01T08:38:35;101592.69;;;6.53;77.32
67109;BME280;54027;50.786;7.058;2023-02-01T08:41:10;101581.63;;;6.55;76.63
67109;BME280;54027;50.786;7.058;2023-02-01T08:43:36;101592.06;;;6.63;76.64
67109;BME280;54027;50.786;7.058;2023-02-01T08:46:03;101602.53;;;6.73;76.59
67109;BME280;54027;50.786;7.058;2023-02-01T08:48:29;101596.69;;;6.79;76.00
67109;BME280;54027;50.786;7.058;2023-02-01T08:50:54;101612.28;;;6.88;75.96
67109;BME280;54027;50.786;7.058;2023-02-01T08:53:22;101612.41;;;6.94;75.78
67109;BME280;54027;50.786;7.058;2023-02-01T08:55:47;101607.31;;;6.97;75.52
67109;BME280;54027;50.786;7.058;2023-02-01T08:58:13;101608.22;;;6.99;74.79
67109;BME280;54027;50.786;7.058;2023-02-01T09:00:39;101604.84;;;7.02;75.00
67109;BME280;54027;50.786;7.058;2023-02-01T09:03:05;101611.72;;;7.04;74.64
67109;BME280;54027;50.786;7.058;2023-02-01T09:05:31;101616.13;;;7.10;74.61
67109;BME280;54027;50.786;7.058;2023-02-01T09:07:56;101605.16;;;7.17;74.13
67109;BME280;54027;50.786;7.058;2023-02-01T09:10:28;101618.25;;;7.30;74.10
67109;BME280;54027;50.786;7.058;2023-02-01T09:12:53;101601.28;;;7.40;73.74
67109;BME280;54027;50.786;7.058;2023-02-01T09:15:19;101606.53;;;7.44;73.45
67109;BME280;54027;50.786;7.058;2023-02-01T09:17:44;101581.66;;;7.45;72.72
67109;BME280;54027;50.786;7.058;2023-02-01T09:20:11;101592.97;;;7.53;73.35
67109;BME280;54027;50.786;7.058;2023-02-01T09:22:36;101585.38;;;7.61;72.69
67109;BME280;54027;50.786;7.058;2023-02-01T09:25:02;101569.22;;;7.69;71.18
67109;BME280;54027;50.786;7.058;2023-02-01T09:27:27;101566.78;;;7.78;71.77
67109;BME280;54027;50.786;7.058;2023-02-01T09:29:53;101578.91;;;7.85;71.26
67109;BME280;54027;50.786;7.058;2023-02-01T09:32:23;101574.63;;;7.86;71.83
67109;BME280;54027;50.786;7.058;2023-02-01T09:34:49;101579.75;;;7.83;71.80
67109;BME280;54027;50.786;7.058;2023-02-01T09:37:15;101579.53;;;7.72;71.79
67109;BME280;54027;50.786;7.058;2023-02-01T09:39:41;101597.41;;;7.63;72.46
67109;BME280;54027;50.786;7.058;2023-02-01T09:42:19;101588.81;;;7.61;71.87
67109;BME280;54027;50.786;7.058;2023-02-01T09:45:03;101599.88;;;7.57;72.11
67109;BME280;54027;50.786;7.058;2023-02-01T09:47:30;101601.56;;;7.57;72.46
67109;BME280;54027;50.786;7.058;2023-02-01T09:50:15;101598.28;;;7.64;73.05
67109;BME280;54027;50.786;7.058;2023-02-01T09:52:48;101603.44;;;7.64;72.11
67109;BME280;54027;50.786;7.058;2023-02-01T09:55:35;101590.66;;;7.68;71.69
67109;BME280;54027;50.786;7.058;2023-02-01T10:00:38;101584.84;;;7.81;72.09
67109;BME280;54027;50.786;7.058;2023-02-01T10:03:05;101586.69;;;7.88;71.79
67109;BME280;54027;50.786;7.058;2023-02-01T10:14:12;101577.91;;;7.77;70.92
67109;BME280;54027;50.786;7.058;2023-02-01T10:19:34;101584.75;;;7.75;72.26
67109;BME280;54027;50.786;7.058;2023-02-01T10:22:09;101577.13;;;7.81;71.37
67109;BME280;54027;50.786;7.058;2023-02-01T10:24:52;101576.38;;;7.88;71.87
67109;BME280;54027;50.786;7.058;2023-02-01T10:27:34;101560.16;;;7.95;71.21
67109;BME280;54027;50.786;7.058;2023-02-01T10:30:24;101538.97;;;8.13;70.04
67109;BME280;54027;50.786;7.058;2023-02-01T10:32:54;101561.53;;;8.29;71.13
67109;BME280;54027;50.786;7.058;2023-02-01T10:35:34;101548.78;;;8.38;69.79
67109;BME280;54027;50.786;7.058;2023-02-01T10:38:02;101544.63;;;8.49;69.58
67109;BME280;54027;50.786;7.058;2023-02-01T10:40:30;101561.78;;;8.47;69.15
67109;BME280;54027;50.786;7.058;2023-02-01T10:43:02;101553.09;;;8.41;70.03
67109;BME280;54027;50.786;7.058;2023-02-01T10:45:30;101550.59;;;8.45;69.02
67109;BME280;54027;50.786;7.058;2023-02-01T10:47:58;101533.44;;;8.47;68.92
67109;BME280;54027;50.786;7.058;2023-02-01T10:50:39;101538.75;;;8.61;68.25
67109;BME280;54027;50.786;7.058;2023-02-01T10:56:22;101522.59;;;8.76;68.20
67109;BME280;54027;50.786;7.058;2023-02-01T10:58:48;101532.03;;;8.74;67.98
67109;BME280;54027;50.786;7.058;2023-02-01T11:01:40;101517.53;;;8.83;68.58
67109;BME280;54027;50.786;7.058;2023-02-01T11:04:10;101490.09;;;8.90;66.48
67109;BME280;54027;50.786;7.058;2023-02-01T11:06:41;101479.00;;;9.00;65.58
67109;BME280;54027;50.786;7.058;2023-02-01T11:11:33;101478.28;;;9.13;66.62
67109;BME280;54027;50.786;7.058;2023-02-01T11:14:20;101475.72;;;9.18;66.51
67109;BME280;54027;50.786;7.058;2023-02-01T11:16:55;101476.63;;;9.20;66.97
67109;BME280;54027;50.786;7.058;2023-02-01T11:19:22;101482.53;;;9.11;65.93
67109;BME280;54027;50.786;7.058;2023-02-01T11:21:51;101463.56;;;9.03;65.19
67109;BME280;54027;50.786;7.058;2023-02-01T11:24:25;101475.53;;;8.95;65.19
67109;BME280;54027;50.786;7.058;2023-02-01T11:26:53;101487.41;;;8.78;65.83
67109;BME280;54027;50.786;7.058;2023-02-01T11:29:21;101497.69;;;8.75;67.24
67109;BME280;54027;50.786;7.058;2023-02-01T11:31:54;101512.28;;;8.76;67.35
67109;BME280;54027;50.786;7.058;2023-02-01T11:34:24;101504.50;;;8.73;66.84
67109;BME280;54027;50.786;7.058;2023-02-01T11:36:51;101489.91;;;8.73;67.04
67109;BME280;54027;50.786;7.058;2023-02-01T11:39:31;101465.84;;;8.73;66.59
67109;BME280;54027;50.786;7.058;2023-02-01T11:42:12;101446.09;;;8.72;65.26
67109;BME280;54027;50.786;7.058;2023-02-01T11:44:43;101466.00;;;8.86;66.76
67109;BME280;54027;50.786;7.058;2023-02-01T11:49:44;101434.38;;;9.04;65.15
67109;BME280;54027;50.786;7.058;2023-02-01T12:03:05;101443.72;;;8.94;65.97
67109;BME280;54027;50.786;7.058;2023-02-01T12:06:05;101436.72;;;8.78;66.00
67109;BME280;54027;50.786;7.058;2023-02-01T12:14:06;101433.16;;;8.66;66.45
67109;BME280;54027;50.786;7.058;2023-02-01T12:43:19;101387.09;;;9.03;64.01
67109;BME280;54027;50.786;7.058;2023-02-01T12:45:58;101349.25;;;9.02;63.82
67109;BME280;54027;50.786;7.058;2023-02-01T12:51:23;101370.59;;;8.85;64.00
67109;BME280;54027;50.786;7.058;2023-02-01T12:54:04;101380.97;;;8.89;64.01
67109;BME280;54027;50.786;7.058;2023-02-01T12:56:46;101382.72;;;8.95;63.85
67109;BME280;54027;50.786;7.058;2023-02-01T12:59:41;101356.13;;;8.99;63.66
67109;BME280;54027;50.786;7.058;2023-02-01T13:02:24;101343.25;;;9.03;63.81
67109;BME280;54027;50.786;7.058;2023-02-01T13:05:36;101357.94;;;9.10;63.46
67109;BME280;54027;50.786;7.058;2023-02-01T13:07:49;101338.13;;;9.11;63.44
67109;BME280;54027;50.786;7.058;2023-02-01T13:10:23;101358.75;;;9.06;64.21
67109;BME280;54027;50.786;7.058;2023-02-01T13:13:18;101345.81;;;8.99;64.39
67109;BME280;54027;50.786;7.058;2023-02-01T13:15:49;101366.34;;;8.88;64.54
67109;BME280;54027;50.786;7.058;2023-02-01T13:18:19;101357.66;;;8.79;65.28
67109;BME280;54027;50.786;7.058;2023-02-01T13:21:16;101357.59;;;8.73;64.69
67109;BME280;54027;50.786;7.058;2023-02-01T13:23:46;101363.59;;;8.69;65.28
67109;BME280;54027;50.786;7.058;2023-02-01T13:26:12;101366.16;;;8.66;65.35
67109;BME280;54027;50.786;7.058;2023-02-01T13:36:52;101432.94;;;8.44;69.21
67109;BME280;54027;50.786;7.058;2023-02-01T13:42:26;101456.66;;;8.19;70.52
67109;BME280;54027;50.786;7.058;2023-02-01T13:45:00;101453.16;;;8.14;71.41
67109;BME280;54027;50.786;7.058;2023-02-01T13:49:59;101445.31;;;8.05;71.91
67109;BME280;54027;50.786;7.058;2023-02-01T13:52:40;101459.88;;;8.01;72.17
67109;BME280;54027;50.786;7.058;2023-02-01T13:55:23;101459.81;;;7.97;73.77
67109;BME280;54027;50.786;7.058;2023-02-01T13:57:52;101445.16;;;7.93;73.40
67109;BME280;54027;50.786;7.058;2023-02-01T14:13:57;101385.50;;;8.24;70.09
67109;BME280;54027;50.786;7.058;2023-02-01T14:18:56;101385.56;;;8.32;69.52
67109;BME280;54027;50.786;7.058;2023-02-01T14:21:31;101382.16;;;8.34;70.04
67109;BME280;54027;50.786;7.058;2023-02-01T14:26:47;101376.25;;;8.44;69.76
67109;BME280;54027;50.786;7.058;2023-02-01T14:34:35;101382.31;;;8.48;68.90
67109;BME280;54027;50.786;7.058;2023-02-01T14:37:10;101381.44;;;8.49;69.09
67109;BME280;54027;50.786;7.058;2023-02-01T14:47:42;101376.50;;;8.69;67.71
67109;BME280;54027;50.786;7.058;2023-02-01T14:53:09;101390.25;;;8.69;68.50
67109;BME280;54027;50.786;7.058;2023-02-01T14:55:45;101376.50;;;8.69;67.77
67109;BME280;54027;50.786;7.058;2023-02-01T15:00:58;101362.75;;;8.71;67.76
67109;BME280;54027;50.786;7.058;2023-02-01T15:06:22;101373.91;;;8.70;67.19
67109;BME280;54027;50.786;7.058;2023-02-01T15:08:49;101362.75;;;8.71;66.79
67109;BME280;54027;50.786;7.058;2023-02-01T15:11:17;101363.63;;;8.72;67.22
67109;BME280;54027;50.786;7.058;2023-02-01T15:13:50;101357.59;;;8.73;67.38
67109;BME280;54027;50.786;7.058;2023-02-01T15:16:19;101363.66;;;8.75;66.84
67109;BME280;54027;50.786;7.058;2023-02-01T15:18:45;101368.81;;;8.75;67.65
67109;BME280;54027;50.786;7.058;2023-02-01T15:21:23;101355.09;;;8.77;65.82
67109;BME280;54027;50.786;7.058;2023-02-01T15:23:49;101360.25;;;8.77;66.97
67109;BME280;54027;50.786;7.058;2023-02-01T15:26:30;101358.53;;;8.78;65.84
67109;BME280;54027;50.786;7.058;2023-02-01T15:28:58;101367.09;;;8.77;66.59
67109;BME280;54027;50.786;7.058;2023-02-01T15:31:33;101373.97;;;8.76;66.29
67109;BME280;54027;50.786;7.058;2023-02-01T15:33:59;101379.97;;;8.74;66.62
67109;BME280;54027;50.786;7.058;2023-02-01T15:36:24;101380.81;;;8.74;66.63
67109;BME280;54027;50.786;7.058;2023-02-01T15:39:12;101387.69;;;8.74;66.28
67109;BME280;54027;50.786;7.058;2023-02-01T15:41:37;101381.63;;;8.70;67.37
67109;BME280;54027;50.786;7.058;2023-02-01T15:44:09;101370.53;;;8.74;65.86